sensor_id;sensor_type;location;lat;lon;timestamp;pressure;altitude;pressure_sealevel;temperature;humidity
63552;BME280;49698;48.072;7.800;2022-11-04T00:01:38;98646.09;;;10.95;92.43
63552;BME280;49698;48.072;7.800;2022-11-04T00:04:06;98646.09;;;10.95;92.03
63552;BME280;49698;48.072;7.800;2022-11-04T00:06:35;98642.59;;;10.95;91.66
63552;BME280;49698;48.072;7.800;2022-11-04T00:09:06;98647.97;;;10.95;91.76
63552;BME280;49698;48.072;7.800;2022-11-04T00:11:35;98653.69;;;10.93;91.55
63552;BME280;49698;48.072;7.800;2022-11-04T00:14:20;98659.06;;;10.93;91.51
63552;BME280;49698;48.072;7.800;2022-11-04T00:16:48;98648.31;;;10.93;91.34
63552;BME280;49698;48.072;7.800;2022-11-04T00:19:34;98653.97;;;10.92;91.52
63552;BME280;49698;48.072;7.800;2022-11-04T00:22:16;98660.16;;;10.92;91.48
63552;BME280;49698;48.072;7.800;2022-11-04T00:25:04;98658.25;;;10.93;91.06
63552;BME280;49698;48.072;7.800;2022-11-04T00:27:50;98660.16;;;10.92;91.16
63552;BME280;49698;48.072;7.800;2022-11-04T00:30:35;98662.84;;;10.92;91.50
63552;BME280;49698;48.072;7.800;2022-11-04T00:33:04;98665.53;;;10.92;91.09
63552;BME280;49698;48.072;7.800;2022-11-04T00:35:49;98664.25;;;10.90;91.36
63552;BME280;49698;48.072;7.800;2022-11-04T00:38:18;98658.06;;;10.89;91.52
63552;BME280;49698;48.072;7.800;2022-11-04T00:40:48;98651.09;;;10.88;91.47
63552;BME280;49698;48.072;7.800;2022-11-04T00:43:16;98648.72;;;10.87;91.56
63552;BME280;49698;48.072;7.800;2022-11-04T00:45:44;98656.28;;;10.85;91.34
63552;BME280;49698;48.072;7.800;2022-11-04T00:48:12;98653.88;;;10.83;91.52
63552;BME280;49698;48.072;7.800;2022-11-04T00:50:41;98655.50;;;10.84;91.62
63552;BME280;49698;48.072;7.800;2022-11-04T00:53:09;98642.66;;;10.81;91.55
63552;BME280;49698;48.072;7.800;2022-11-04T00:55:37;98644.84;;;10.79;91.87
63552;BME280;49698;48.072;7.800;2022-11-04T00:58:07;98654.31;;;10.76;91.56
63552;BME280;49698;48.072;7.800;2022-11-04T01:00:36;98652.72;;;10.75;91.56
63552;BME280;49698;48.072;7.800;2022-11-04T01:03:05;98650.94;;;10.71;91.88
63552;BME280;49698;48.072;7.800;2022-11-04T01:05:36;98655.00;;;10.68;91.65
63552;BME280;49698;48.072;7.800;2022-11-04T01:08:04;98659.91;;;10.66;91.80
63552;BME280;49698;48.072;7.800;2022-11-04T01:10:34;98657.53;;;10.65;92.10
63552;BME280;49698;48.072;7.800;2022-11-04T01:13:02;98646.59;;;10.61;91.98
63552;BME280;49698;48.072;7.800;2022-11-04T01:15:31;98649.88;;;10.58;92.00
63552;BME280;49698;48.072;7.800;2022-11-04T01:17:59;98649.66;;;10.55;92.05
63552;BME280;49698;48.072;7.800;2022-11-04T01:20:27;98652.94;;;10.51;92.32
63552;BME280;49698;48.072;7.800;2022-11-04T01:22:55;98645.78;;;10.47;92.35
63552;BME280;49698;48.072;7.800;2022-11-04T01:25:23;98647.97;;;10.45;91.92
63552;BME280;49698;48.072;7.800;2022-11-04T01:27:52;98652.34;;;10.41;92.18
63552;BME280;49698;48.072;7.800;2022-11-04T01:30:20;98649.47;;;10.37;91.88
63552;BME280;49698;48.072;7.800;2022-11-04T01:32:49;98650.88;;;10.35;92.08
63552;BME280;49698;48.072;7.800;2022-11-04T01:35:18;98653.06;;;10.33;91.86
63552;BME280;49698;48.072;7.800;2022-11-04T01:37:46;98666.81;;;10.31;92.14
63552;BME280;49698;48.072;7.800;2022-11-04T01:40:14;98660.91;;;10.29;92.00
63552;BME280;49698;48.072;7.800;2022-11-04T01:42:42;98645.91;;;10.28;91.86
63552;BME280;49698;48.072;7.800;2022-11-04T01:45:12;98647.00;;;10.27;91.85
63552;BME280;49698;48.072;7.800;2022-11-04T01:47:43;98647.28;;;10.25;91.89
63552;BME280;49698;48.072;7.800;2022-11-04T01:50:16;98646.00;;;10.23;91.58
63552;BME280;49698;48.072;7.800;2022-11-04T01:52:50;98634.72;;;10.21;91.60
63552;BME280;49698;48.072;7.800;2022-11-04T01:55:22;98632.03;;;10.21;91.76
63552;BME280;49698;48.072;7.800;2022-11-04T01:57:52;98620.81;;;10.19;91.51
63552;BME280;49698;48.072;7.800;2022-11-04T02:00:21;98621.09;;;10.17;91.37
63552;BME280;49698;48.072;7.800;2022-11-04T02:02:53;98617.63;;;10.17;91.35
63552;BME280;49698;48.072;7.800;2022-11-04T02:05:26;98612.56;;;10.15;91.46
63552;BME280;49698;48.072;7.800;2022-11-04T02:07:56;98604.00;;;10.13;91.34
63552;BME280;49698;48.072;7.800;2022-11-04T02:10:28;98601.63;;;10.12;91.28
63552;BME280;49698;48.072;7.800;2022-11-04T02:12:58;98590.88;;;10.12;91.25
63552;BME280;49698;48.072;7.800;2022-11-04T02:15:34;98601.13;;;10.10;91.43
63552;BME280;49698;48.072;7.800;2022-11-04T02:18:12;98600.63;;;10.08;91.45
63552;BME280;49698;48.072;7.800;2022-11-04T02:21:29;98614.34;;;10.06;91.29
63552;BME280;49698;48.072;7.800;2022-11-04T02:27:29;98606.59;;;10.04;91.22
63552;BME280;49698;48.072;7.800;2022-11-04T02:30:07;98605.00;;;10.03;91.01
63552;BME280;49698;48.072;7.800;2022-11-04T02:33:10;98594.53;;;10.02;91.13
63552;BME280;49698;48.072;7.800;2022-11-04T02:35:52;98606.09;;;10.02;91.18
63552;BME280;49698;48.072;7.800;2022-11-04T02:38:30;98601.81;;;10.01;91.05
63552;BME280;49698;48.072;7.800;2022-11-04T02:41:07;98610.97;;;10.00;90.87
63552;BME280;49698;48.072;7.800;2022-11-04T02:43:46;98595.16;;;9.99;90.76
63552;BME280;49698;48.072;7.800;2022-11-04T02:46:20;98593.56;;;9.98;90.85
63552;BME280;49698;48.072;7.800;2022-11-04T02:48:56;98594.34;;;9.98;90.91
63552;BME280;49698;48.072;7.800;2022-11-04T02:51:28;98597.66;;;9.95;90.97
63552;BME280;49698;48.072;7.800;2022-11-04T02:54:03;98597.94;;;9.94;90.55
63552;BME280;49698;48.072;7.800;2022-11-04T02:56:36;98600.63;;;9.94;90.88
63552;BME280;49698;48.072;7.800;2022-11-04T02:59:09;98595.25;;;9.94;90.83
63552;BME280;49698;48.072;7.800;2022-11-04T03:01:42;98596.56;;;9.96;90.57
63552;BME280;49698;48.072;7.800;2022-11-04T03:04:14;98592.75;;;9.97;90.61
63552;BME280;49698;48.072;7.800;2022-11-04T03:06:47;98597.84;;;9.99;90.37
63552;BME280;49698;48.072;7.800;2022-11-04T03:09:17;98594.06;;;10.00;90.50
63552;BME280;49698;48.072;7.800;2022-11-04T03:11:51;98600.72;;;10.02;90.42
63552;BME280;49698;48.072;7.800;2022-11-04T03:14:24;98595.53;;;10.06;90.17
63552;BME280;49698;48.072;7.800;2022-11-04T03:16:58;98595.25;;;10.08;90.14
63552;BME280;49698;48.072;7.800;2022-11-04T03:19:33;98573.78;;;10.08;90.05
63552;BME280;49698;48.072;7.800;2022-11-04T03:22:09;98573.00;;;10.07;89.68
63552;BME280;49698;48.072;7.800;2022-11-04T03:24:38;98576.75;;;10.06;89.52
63552;BME280;49698;48.072;7.800;2022-11-04T03:27:13;98585.91;;;10.05;89.77
63552;BME280;49698;48.072;7.800;2022-11-04T03:29:48;98583.53;;;10.03;89.54
63552;BME280;49698;48.072;7.800;2022-11-04T03:32:28;98565.81;;;10.02;89.47
63552;BME280;49698;48.072;7.800;2022-11-04T03:34:59;98557.59;;;9.99;89.51
63552;BME280;49698;48.072;7.800;2022-11-04T03:37:28;98569.41;;;9.98;89.32
63552;BME280;49698;48.072;7.800;2022-11-04T03:39:56;98570.81;;;9.95;89.67
63552;BME280;49698;48.072;7.800;2022-11-04T03:42:25;98561.75;;;9.91;89.45
63552;BME280;49698;48.072;7.800;2022-11-04T03:44:55;98565.50;;;9.90;89.97
63552;BME280;49698;48.072;7.800;2022-11-04T03:47:26;98575.78;;;9.88;89.83
63552;BME280;49698;48.072;7.800;2022-11-04T03:49:58;98566.09;;;9.87;89.72
63552;BME280;49698;48.072;7.800;2022-11-04T03:52:29;98549.53;;;9.85;89.91
63552;BME280;49698;48.072;7.800;2022-11-04T03:54:57;98551.69;;;9.83;89.40
63552;BME280;49698;48.072;7.800;2022-11-04T03:57:33;98564.63;;;9.81;89.70
63552;BME280;49698;48.072;7.800;2022-11-04T04:00:08;98568.41;;;9.80;89.64
63552;BME280;49698;48.072;7.800;2022-11-04T04:02:48;98562.53;;;9.78;89.72
63552;BME280;49698;48.072;7.800;2022-11-04T04:05:26;98555.59;;;9.77;89.29
63552;BME280;49698;48.072;7.800;2022-11-04T04:08:01;98553.19;;;9.75;89.72
63552;BME280;49698;48.072;7.800;2022-11-04T04:10:40;98566.91;;;9.74;89.88
63552;BME280;49698;48.072;7.800;2022-11-04T04:13:17;98570.19;;;9.71;89.80
63552;BME280;49698;48.072;7.800;2022-11-04T04:15:51;98572.38;;;9.69;89.83
63552;BME280;49698;48.072;7.800;2022-11-04T04:18:28;98579.91;;;9.67;89.80
63552;BME280;49698;48.072;7.800;2022-11-04T04:21:01;98581.31;;;9.64;89.68
63552;BME280;49698;48.072;7.800;2022-11-04T04:23:31;98575.13;;;9.64;89.54
63552;BME280;49698;48.072;7.800;2022-11-04T04:26:19;98567.41;;;9.62;89.65
63552;BME280;49698;48.072;7.800;2022-11-04T04:29:06;98563.94;;;9.62;89.22
63552;BME280;49698;48.072;7.800;2022-11-04T04:31:36;98571.97;;;9.62;89.24
63552;BME280;49698;48.072;7.800;2022-11-04T04:34:21;98565.03;;;9.61;89.16
63552;BME280;49698;48.072;7.800;2022-11-04T04:36:53;98560.44;;;9.61;88.87
63552;BME280;49698;48.072;7.800;2022-11-04T04:39:26;98560.13;;;9.63;88.61
63552;BME280;49698;48.072;7.800;2022-11-04T04:42:13;98555.28;;;9.65;88.20
63552;BME280;49698;48.072;7.800;2022-11-04T04:45:01;98555.28;;;9.65;88.42
63552;BME280;49698;48.072;7.800;2022-11-04T04:47:42;98556.88;;;9.66;87.82
63552;BME280;49698;48.072;7.800;2022-11-04T04:50:13;98553.88;;;9.67;87.25
63552;BME280;49698;48.072;7.800;2022-11-04T04:52:44;98557.88;;;9.70;87.16
63552;BME280;49698;48.072;7.800;2022-11-04T04:55:14;98545.25;;;9.70;87.03
63552;BME280;49698;48.072;7.800;2022-11-04T04:57:42;98543.34;;;9.71;86.64
63552;BME280;49698;48.072;7.800;2022-11-04T05:00:13;98529.94;;;9.71;86.52
63552;BME280;49698;48.072;7.800;2022-11-04T05:02:42;98524.28;;;9.72;86.14
63552;BME280;49698;48.072;7.800;2022-11-04T05:05:12;98520.81;;;9.72;86.14
63552;BME280;49698;48.072;7.800;2022-11-04T05:07:41;98508.19;;;9.72;85.84
63552;BME280;49698;48.072;7.800;2022-11-04T05:10:11;98507.41;;;9.72;85.98
63552;BME280;49698;48.072;7.800;2022-11-04T05:12:40;98501.50;;;9.70;85.65
63552;BME280;49698;48.072;7.800;2022-11-04T05:15:27;98493.78;;;9.68;85.07
63552;BME280;49698;48.072;7.800;2022-11-04T05:17:57;98495.63;;;9.68;84.93
63552;BME280;49698;48.072;7.800;2022-11-04T05:20:27;98498.31;;;9.68;85.03
63552;BME280;49698;48.072;7.800;2022-11-04T05:22:56;98495.63;;;9.68;84.84
63552;BME280;49698;48.072;7.800;2022-11-04T05:25:24;98492.47;;;9.66;85.05
63552;BME280;49698;48.072;7.800;2022-11-04T05:27:52;98493.56;;;9.65;84.42
63552;BME280;49698;48.072;7.800;2022-11-04T05:30:20;98493.84;;;9.63;84.60
63552;BME280;49698;48.072;7.800;2022-11-04T05:32:48;98492.28;;;9.62;84.82
63552;BME280;49698;48.072;7.800;2022-11-04T05:35:17;98489.91;;;9.61;84.67
63552;BME280;49698;48.072;7.800;2022-11-04T05:37:46;98479.16;;;9.61;84.59
63552;BME280;49698;48.072;7.800;2022-11-04T05:40:14;98490.97;;;9.60;84.40
63552;BME280;49698;48.072;7.800;2022-11-04T05:42:42;98494.75;;;9.59;84.39
63552;BME280;49698;48.072;7.800;2022-11-04T05:45:10;98487.81;;;9.58;84.86
63552;BME280;49698;48.072;7.800;2022-11-04T05:47:38;98494.28;;;9.57;84.46
63552;BME280;49698;48.072;7.800;2022-11-04T05:50:07;98483.03;;;9.54;84.55
63552;BME280;49698;48.072;7.800;2022-11-04T05:52:36;98488.72;;;9.53;84.21
63552;BME280;49698;48.072;7.800;2022-11-04T05:55:06;98485.50;;;9.51;84.44
63552;BME280;49698;48.072;7.800;2022-11-04T05:57:34;98476.16;;;9.48;84.48
63552;BME280;49698;48.072;7.800;2022-11-04T06:00:04;98470.00;;;9.48;84.52
63552;BME280;49698;48.072;7.800;2022-11-04T06:02:32;98471.09;;;9.47;84.47
63552;BME280;49698;48.072;7.800;2022-11-04T06:05:01;98471.41;;;9.45;84.56
63552;BME280;49698;48.072;7.800;2022-11-04T06:07:29;98463.97;;;9.42;84.58
63552;BME280;49698;48.072;7.800;2022-11-04T06:09:57;98472.28;;;9.41;84.52
63552;BME280;49698;48.072;7.800;2022-11-04T06:12:27;98467.22;;;9.39;84.49
63552;BME280;49698;48.072;7.800;2022-11-04T06:14:55;98471.00;;;9.38;84.73
63552;BME280;49698;48.072;7.800;2022-11-04T06:17:23;98461.38;;;9.37;84.74
63552;BME280;49698;48.072;7.800;2022-11-04T06:19:51;98467.03;;;9.36;84.79
63552;BME280;49698;48.072;7.800;2022-11-04T06:22:19;98460.09;;;9.35;84.40
63552;BME280;49698;48.072;7.800;2022-11-04T06:24:47;98470.00;;;9.34;84.43
63552;BME280;49698;48.072;7.800;2022-11-04T06:27:15;98462.25;;;9.32;84.24
63552;BME280;49698;48.072;7.800;2022-11-04T06:29:45;98466.81;;;9.32;84.42
63552;BME280;49698;48.072;7.800;2022-11-04T06:32:15;98466.63;;;9.28;84.51
63552;BME280;49698;48.072;7.800;2022-11-04T06:34:43;98476.56;;;9.28;84.87
63552;BME280;49698;48.072;7.800;2022-11-04T06:37:11;98474.75;;;9.23;84.94
63552;BME280;49698;48.072;7.800;2022-11-04T06:39:40;98477.75;;;9.22;85.51
63552;BME280;49698;48.072;7.800;2022-11-04T06:42:08;98486.06;;;9.20;85.33
63552;BME280;49698;48.072;7.800;2022-11-04T06:44:36;98489.06;;;9.19;85.33
63552;BME280;49698;48.072;7.800;2022-11-04T06:47:05;98492.03;;;9.17;85.77
63552;BME280;49698;48.072;7.800;2022-11-04T06:49:33;98495.00;;;9.16;85.27
63552;BME280;49698;48.072;7.800;2022-11-04T06:52:02;98504.94;;;9.15;86.02
63552;BME280;49698;48.072;7.800;2022-11-04T06:54:30;98505.72;;;9.16;85.78
63552;BME280;49698;48.072;7.800;2022-11-04T06:56:58;98505.72;;;9.16;85.79
63552;BME280;49698;48.072;7.800;2022-11-04T06:59:26;98501.69;;;9.18;85.84
63552;BME280;49698;48.072;7.800;2022-11-04T07:01:54;98500.59;;;9.19;85.76
63552;BME280;49698;48.072;7.800;2022-11-04T07:04:24;98497.59;;;9.21;85.86
63552;BME280;49698;48.072;7.800;2022-11-04T07:06:52;98495.44;;;9.23;86.00
63552;BME280;49698;48.072;7.800;2022-11-04T07:09:20;98493.22;;;9.25;86.04
63552;BME280;49698;48.072;7.800;2022-11-04T07:11:48;98492.66;;;9.28;85.68
63552;BME280;49698;48.072;7.800;2022-11-04T07:14:16;98493.63;;;9.32;85.50
63552;BME280;49698;48.072;7.800;2022-11-04T07:16:44;98492.25;;;9.35;85.70
63552;BME280;49698;48.072;7.800;2022-11-04T07:19:12;98490.56;;;9.39;85.35
63552;BME280;49698;48.072;7.800;2022-11-04T07:21:42;98487.00;;;9.43;85.06
63552;BME280;49698;48.072;7.800;2022-11-04T07:24:10;98493.34;;;9.47;84.47
63552;BME280;49698;48.072;7.800;2022-11-04T07:26:38;98489.50;;;9.53;84.20
63552;BME280;49698;48.072;7.800;2022-11-04T07:29:08;98491.28;;;9.58;84.57
63552;BME280;49698;48.072;7.800;2022-11-04T07:31:37;98493.06;;;9.63;84.25
63552;BME280;49698;48.072;7.800;2022-11-04T07:34:05;98499.72;;;9.65;84.12
63552;BME280;49698;48.072;7.800;2022-11-04T07:36:33;98498.81;;;9.70;83.94
63552;BME280;49698;48.072;7.800;2022-11-04T07:39:03;98494.13;;;9.75;83.63
63552;BME280;49698;48.072;7.800;2022-11-04T07:41:32;98491.84;;;9.83;83.12
63552;BME280;49698;48.072;7.800;2022-11-04T07:44:00;98488.25;;;9.87;83.35
63552;BME280;49698;48.072;7.800;2022-11-04T07:46:31;98480.13;;;9.92;82.69
63552;BME280;49698;48.072;7.800;2022-11-04T07:48:59;98482.09;;;10.00;82.53
63552;BME280;49698;48.072;7.800;2022-11-04T07:51:28;98487.06;;;10.07;82.51
63552;BME280;49698;48.072;7.800;2022-11-04T07:53:57;98494.09;;;10.17;81.85
63552;BME280;49698;48.072;7.800;2022-11-04T07:56:27;98489.63;;;10.26;81.24
63552;BME280;49698;48.072;7.800;2022-11-04T07:58:55;98483.03;;;10.32;81.33
63552;BME280;49698;48.072;7.800;2022-11-04T08:01:23;98481.06;;;10.38;80.62
63552;BME280;49698;48.072;7.800;2022-11-04T08:03:51;98476.84;;;10.45;80.68
63552;BME280;49698;48.072;7.800;2022-11-04T08:06:21;98469.13;;;10.52;80.22
63552;BME280;49698;48.072;7.800;2022-11-04T08:08:49;98463.66;;;10.58;79.90
63552;BME280;49698;48.072;7.800;2022-11-04T08:11:21;98457.38;;;10.62;79.93
63552;BME280;49698;48.072;7.800;2022-11-04T08:13:52;98455.97;;;10.65;79.36
63552;BME280;49698;48.072;7.800;2022-11-04T08:16:23;98452.19;;;10.66;78.99
63552;BME280;49698;48.072;7.800;2022-11-04T08:18:53;98448.88;;;10.69;78.61
63552;BME280;49698;48.072;7.800;2022-11-04T08:21:28;98448.56;;;10.70;78.58
63552;BME280;49698;48.072;7.800;2022-11-04T08:23:56;98446.06;;;10.74;78.53
63552;BME280;49698;48.072;7.800;2022-11-04T08:26:24;98445.91;;;10.79;78.33
63552;BME280;49698;48.072;7.800;2022-11-04T08:28:55;98449.56;;;10.83;77.68
63552;BME280;49698;48.072;7.800;2022-11-04T08:31:24;98443.59;;;10.86;77.76
63552;BME280;49698;48.072;7.800;2022-11-04T08:33:53;98449.94;;;10.90;77.46
63552;BME280;49698;48.072;7.800;2022-11-04T08:36:23;98450.44;;;10.92;77.37
63552;BME280;49698;48.072;7.800;2022-11-04T08:38:52;98456.91;;;10.91;77.06
63552;BME280;49698;48.072;7.800;2022-11-04T08:41:24;98458.81;;;10.91;76.65
63552;BME280;49698;48.072;7.800;2022-11-04T08:43:56;98457.69;;;10.92;76.76
63552;BME280;49698;48.072;7.800;2022-11-04T08:46:27;98452.31;;;10.92;76.68
63552;BME280;49698;48.072;7.800;2022-11-04T08:48:55;98455.69;;;10.97;76.34
63552;BME280;49698;48.072;7.800;2022-11-04T08:51:25;98454.47;;;11.04;75.98
63552;BME280;49698;48.072;7.800;2022-11-04T08:53:54;98466.66;;;11.10;75.74
63552;BME280;49698;48.072;7.800;2022-11-04T08:56:23;98462.09;;;11.19;75.76
63552;BME280;49698;48.072;7.800;2022-11-04T08:58:53;98461.84;;;11.29;75.03
63552;BME280;49698;48.072;7.800;2022-11-04T09:01:23;98465.09;;;11.48;74.26
63552;BME280;49698;48.072;7.800;2022-11-04T09:03:53;98464.22;;;11.70;73.56
63552;BME280;49698;48.072;7.800;2022-11-04T09:06:23;98460.78;;;11.87;72.71
63552;BME280;49698;48.072;7.800;2022-11-04T09:08:52;98456.06;;;12.02;71.86
63552;BME280;49698;48.072;7.800;2022-11-04T09:11:23;98458.75;;;12.10;71.55
63552;BME280;49698;48.072;7.800;2022-11-04T09:13:51;98454.50;;;12.18;71.33
63552;BME280;49698;48.072;7.800;2022-11-04T09:16:20;98460.22;;;12.25;70.99
63552;BME280;49698;48.072;7.800;2022-11-04T09:18:49;98465.44;;;12.30;70.74
63552;BME280;49698;48.072;7.800;2022-11-04T09:21:17;98470.19;;;12.33;70.57
63552;BME280;49698;48.072;7.800;2022-11-04T09:23:46;98466.72;;;12.33;70.45
63552;BME280;49698;48.072;7.800;2022-11-04T09:26:15;98464.19;;;12.28;70.21
63552;BME280;49698;48.072;7.800;2022-11-04T09:28:43;98474.78;;;12.24;70.20
63552;BME280;49698;48.072;7.800;2022-11-04T09:31:14;98464.63;;;12.21;70.35
63552;BME280;49698;48.072;7.800;2022-11-04T09:33:43;98476.03;;;12.18;70.32
63552;BME280;49698;48.072;7.800;2022-11-04T09:36:12;98474.75;;;12.15;70.60
63552;BME280;49698;48.072;7.800;2022-11-04T09:38:41;98469.69;;;12.14;70.32
63552;BME280;49698;48.072;7.800;2022-11-04T09:41:27;98471.91;;;12.12;70.50
63552;BME280;49698;48.072;7.800;2022-11-04T09:44:03;98473.50;;;12.13;70.42
63552;BME280;49698;48.072;7.800;2022-11-04T09:46:38;98469.22;;;12.12;70.48
63552;BME280;49698;48.072;7.800;2022-11-04T09:49:09;98473.50;;;12.13;70.52
63552;BME280;49698;48.072;7.800;2022-11-04T09:51:41;98475.53;;;12.07;70.37
63552;BME280;49698;48.072;7.800;2022-11-04T09:54:21;98473.00;;;12.02;70.58
63552;BME280;49698;48.072;7.800;2022-11-04T09:56:51;98471.44;;;12.01;70.67
63552;BME280;49698;48.072;7.800;2022-11-04T09:59:24;98466.06;;;12.01;70.63
63552;BME280;49698;48.072;7.800;2022-11-04T10:02:02;98470.00;;;12.04;70.58
63552;BME280;49698;48.072;7.800;2022-11-04T10:04:44;98470.31;;;12.11;70.68
63552;BME280;49698;48.072;7.800;2022-11-04T10:07:28;98472.72;;;12.21;70.69
63552;BME280;49698;48.072;7.800;2022-11-04T10:10:07;98471.44;;;12.27;70.65
63552;BME280;49698;48.072;7.800;2022-11-04T10:12:46;98467.50;;;12.33;70.55
63552;BME280;49698;48.072;7.800;2022-11-04T10:15:36;98474.78;;;12.41;70.13
63552;BME280;49698;48.072;7.800;2022-11-04T10:18:20;98468.59;;;12.49;69.82
63552;BME280;49698;48.072;7.800;2022-11-04T10:20:59;98462.72;;;12.56;69.60
63552;BME280;49698;48.072;7.800;2022-11-04T10:23:39;98464.16;;;12.62;69.66
63552;BME280;49698;48.072;7.800;2022-11-04T10:26:14;98471.28;;;12.67;69.45
63552;BME280;49698;48.072;7.800;2022-11-04T10:28:46;98471.44;;;12.70;69.38
63552;BME280;49698;48.072;7.800;2022-11-04T10:31:17;98465.88;;;12.76;69.34
63552;BME280;49698;48.072;7.800;2022-11-04T10:33:49;98464.91;;;12.80;68.98
63552;BME280;49698;48.072;7.800;2022-11-04T10:36:19;98467.00;;;12.75;69.10
63552;BME280;49698;48.072;7.800;2022-11-04T10:38:51;98467.16;;;12.69;69.18
63552;BME280;49698;48.072;7.800;2022-11-04T10:41:27;98464.16;;;12.71;69.08
63552;BME280;49698;48.072;7.800;2022-11-04T10:44:00;98455.72;;;12.72;69.20
63552;BME280;49698;48.072;7.800;2022-11-04T10:46:39;98461.13;;;12.72;69.21
63552;BME280;49698;48.072;7.800;2022-11-04T10:52:08;98457.94;;;12.79;69.18
63552;BME280;49698;48.072;7.800;2022-11-04T10:54:41;98457.94;;;12.79;69.01
63552;BME280;49698;48.072;7.800;2022-11-04T10:57:10;98467.31;;;12.82;68.79
63552;BME280;49698;48.072;7.800;2022-11-04T10:59:49;98459.69;;;12.84;68.85
63552;BME280;49698;48.072;7.800;2022-11-04T11:02:44;98458.75;;;12.80;68.61
63552;BME280;49698;48.072;7.800;2022-11-04T11:05:21;98464.75;;;12.77;68.74
63552;BME280;49698;48.072;7.800;2022-11-04T11:07:51;98457.94;;;12.79;68.80
63552;BME280;49698;48.072;7.800;2022-11-04T11:10:24;98452.72;;;12.83;68.74
63552;BME280;49698;48.072;7.800;2022-11-04T11:12:55;98458.41;;;12.90;68.70
63552;BME280;49698;48.072;7.800;2022-11-04T11:15:29;98447.44;;;12.95;68.61
63552;BME280;49698;48.072;7.800;2022-11-04T11:18:15;98451.06;;;12.99;68.37
63552;BME280;49698;48.072;7.800;2022-11-04T11:20:48;98451.38;;;13.06;68.15
63552;BME280;49698;48.072;7.800;2022-11-04T11:23:35;98455.34;;;13.09;68.12
63552;BME280;49698;48.072;7.800;2022-11-04T11:26:07;98453.91;;;13.11;67.90
63552;BME280;49698;48.072;7.800;2022-11-04T11:28:37;98452.66;;;13.09;67.64
63552;BME280;49698;48.072;7.800;2022-11-04T11:31:10;98452.16;;;13.07;67.70
63552;BME280;49698;48.072;7.800;2022-11-04T11:33:48;98453.59;;;13.04;67.70
63552;BME280;49698;48.072;7.800;2022-11-04T11:36:20;98444.25;;;13.02;67.64
63552;BME280;49698;48.072;7.800;2022-11-04T11:39:01;98448.88;;;13.01;67.79
63552;BME280;49698;48.072;7.800;2022-11-04T11:41:33;98449.16;;;13.00;67.79
63552;BME280;49698;48.072;7.800;2022-11-04T11:44:06;98445.84;;;13.03;67.92
63552;BME280;49698;48.072;7.800;2022-11-04T11:46:49;98449.97;;;13.09;67.78
63552;BME280;49698;48.072;7.800;2022-11-04T11:49:23;98451.53;;;13.10;67.52
63552;BME280;49698;48.072;7.800;2022-11-04T11:51:54;98453.75;;;13.08;67.62
63552;BME280;49698;48.072;7.800;2022-11-04T11:54:27;98452.16;;;13.07;67.51
63552;BME280;49698;48.072;7.800;2022-11-04T11:57:02;98443.94;;;13.03;67.48
63552;BME280;49698;48.072;7.800;2022-11-04T11:59:44;98444.25;;;13.02;67.65
63552;BME280;49698;48.072;7.800;2022-11-04T12:02:45;98449.97;;;13.00;67.78
63552;BME280;49698;48.072;7.800;2022-11-04T12:05:14;98446.03;;;12.97;68.23
63552;BME280;49698;48.072;7.800;2022-11-04T12:08:14;98445.19;;;12.97;68.60
63552;BME280;49698;48.072;7.800;2022-11-04T12:11:12;98447.78;;;12.93;68.87
63552;BME280;49698;48.072;7.800;2022-11-04T12:13:46;98446.50;;;12.91;69.01
63552;BME280;49698;48.072;7.800;2022-11-04T12:16:23;98440.63;;;12.89;69.28
63552;BME280;49698;48.072;7.800;2022-11-04T12:19:09;98443.31;;;12.89;69.50
63552;BME280;49698;48.072;7.800;2022-11-04T12:21:44;98451.41;;;12.89;69.68
63552;BME280;49698;48.072;7.800;2022-11-04T12:24:23;98450.78;;;12.92;69.75
63552;BME280;49698;48.072;7.800;2022-11-04T12:27:00;98452.50;;;12.96;69.64
63552;BME280;49698;48.072;7.800;2022-11-04T12:29:43;98455.50;;;13.04;69.70
63552;BME280;49698;48.072;7.800;2022-11-04T12:32:23;98454.22;;;13.10;69.65
63552;BME280;49698;48.072;7.800;2022-11-04T12:35:06;98450.72;;;13.18;69.40
63552;BME280;49698;48.072;7.800;2022-11-04T12:37:45;98463.88;;;13.28;69.19
63552;BME280;49698;48.072;7.800;2022-11-04T12:40:21;98447.16;;;13.35;69.07
63552;BME280;49698;48.072;7.800;2022-11-04T12:43:07;98452.72;;;13.38;69.07
63552;BME280;49698;48.072;7.800;2022-11-04T12:45:50;98452.88;;;13.42;68.73
63552;BME280;49698;48.072;7.800;2022-11-04T12:48:36;98456.34;;;13.42;68.27
63552;BME280;49698;48.072;7.800;2022-11-04T12:51:13;98457.75;;;13.49;68.14
63552;BME280;49698;48.072;7.800;2022-11-04T12:53:47;98455.34;;;13.56;68.16
63552;BME280;49698;48.072;7.800;2022-11-04T12:56:24;98457.53;;;13.62;67.65
63552;BME280;49698;48.072;7.800;2022-11-04T12:59:08;98456.88;;;13.65;67.54
63552;BME280;49698;48.072;7.800;2022-11-04T13:01:45;98463.84;;;13.66;67.23
63552;BME280;49698;48.072;7.800;2022-11-04T13:04:18;98464.97;;;13.65;67.12
63552;BME280;49698;48.072;7.800;2022-11-04T13:06:50;98473.88;;;13.66;67.30
63552;BME280;49698;48.072;7.800;2022-11-04T13:09:29;98478.19;;;13.67;66.98
63552;BME280;49698;48.072;7.800;2022-11-04T13:12:02;98467.53;;;13.62;66.75
63552;BME280;49698;48.072;7.800;2022-11-04T13:14:35;98463.44;;;13.56;66.68
63552;BME280;49698;48.072;7.800;2022-11-04T13:17:09;98467.91;;;13.52;66.73
63552;BME280;49698;48.072;7.800;2022-11-04T13:19:42;98459.34;;;13.50;66.70
63552;BME280;49698;48.072;7.800;2022-11-04T13:22:16;98455.38;;;13.47;66.32
63552;BME280;49698;48.072;7.800;2022-11-04T13:24:48;98459.06;;;13.42;66.16
63552;BME280;49698;48.072;7.800;2022-11-04T13:27:20;98451.28;;;13.41;66.23
63552;BME280;49698;48.072;7.800;2022-11-04T13:29:49;98457.47;;;13.41;66.18
63552;BME280;49698;48.072;7.800;2022-11-04T13:32:25;98453.66;;;13.42;66.30
63552;BME280;49698;48.072;7.800;2022-11-04T13:35:00;98459.06;;;13.42;66.49
63552;BME280;49698;48.072;7.800;2022-11-04T13:37:31;98457.94;;;13.43;66.30
63552;BME280;49698;48.072;7.800;2022-11-04T13:40:04;98455.22;;;13.43;66.09
63552;BME280;49698;48.072;7.800;2022-11-04T13:45:48;98464.34;;;13.30;65.88